sensor_id;sensor_type;location;lat;lon;timestamp;P1;durP1;ratioP1;P2;durP2;ratioP2
74957;SDS011;63741;42.624;26.276;2023-08-31T00:01:58;10.18;;;5.85;;
74957;SDS011;63741;42.624;26.276;2023-08-31T00:04:25;11.07;;;5.53;;
74957;SDS011;63741;42.624;26.276;2023-08-31T00:06:52;13.82;;;6.22;;
74957;SDS011;63741;42.624;26.276;2023-08-31T00:09:19;14.15;;;6.43;;
74957;SDS011;63741;42.624;26.276;2023-08-31T00:11:46;11.50;;;6.10;;
74957;SDS011;63741;42.624;26.276;2023-08-31T00:14:13;11.02;;;5.97;;
74957;SDS011;63741;42.624;26.276;2023-08-31T00:16:40;14.52;;;6.18;;
74957;SDS011;63741;42.624;26.276;2023-08-31T00:19:07;16.23;;;6.10;;
74957;SDS011;63741;42.624;26.276;2023-08-31T00:21:34;15.27;;;6.28;;
74957;SDS011;63741;42.624;26.276;2023-08-31T00:24:01;14.02;;;6.38;;
74957;SDS011;63741;42.624;26.276;2023-08-31T00:26:28;11.65;;;6.45;;
74957;SDS011;63741;42.624;26.276;2023-08-31T00:28:57;15.10;;;6.65;;
74957;SDS011;63741;42.624;26.276;2023-08-31T00:31:25;8.57;;;6.45;;
74957;SDS011;63741;42.624;26.276;2023-08-31T00:33:54;16.90;;;6.60;;
74957;SDS011;63741;42.624;26.276;2023-08-31T00:36:21;19.05;;;6.22;;
74957;SDS011;63741;42.624;26.276;2023-08-31T00:38:49;10.70;;;6.00;;
74957;SDS011;63741;42.624;26.276;2023-08-31T00:41:16;13.77;;;6.88;;
74957;SDS011;63741;42.624;26.276;2023-08-31T00:43:43;13.43;;;6.38;;
74957;SDS011;63741;42.624;26.276;2023-08-31T00:46:11;13.48;;;7.07;;
74957;SDS011;63741;42.624;26.276;2023-08-31T00:48:38;14.27;;;7.32;;
74957;SDS011;63741;42.624;26.276;2023-08-31T00:51:05;13.40;;;7.20;;
74957;SDS011;63741;42.624;26.276;2023-08-31T00:53:34;11.00;;;6.85;;
74957;SDS011;63741;42.624;26.276;2023-08-31T00:56:02;11.40;;;6.72;;
74957;SDS011;63741;42.624;26.276;2023-08-31T00:58:29;12.48;;;6.80;;
74957;SDS011;63741;42.624;26.276;2023-08-31T01:09:25;22.58;;;6.78;;
74957;SDS011;63741;42.624;26.276;2023-08-31T01:12:09;13.50;;;7.13;;
74957;SDS011;63741;42.624;26.276;2023-08-31T01:14:56;11.10;;;6.22;;
74957;SDS011;63741;42.624;26.276;2023-08-31T01:17:29;9.07;;;6.75;;
74957;SDS011;63741;42.624;26.276;2023-08-31T01:19:58;9.45;;;6.00;;
74957;SDS011;63741;42.624;26.276;2023-08-31T01:24:54;11.82;;;6.30;;
74957;SDS011;63741;42.624;26.276;2023-08-31T01:27:21;12.38;;;6.53;;
74957;SDS011;63741;42.624;26.276;2023-08-31T01:29:48;14.43;;;6.28;;
74957;SDS011;63741;42.624;26.276;2023-08-31T01:32:16;12.02;;;6.57;;
74957;SDS011;63741;42.624;26.276;2023-08-31T01:34:43;12.52;;;6.88;;
74957;SDS011;63741;42.624;26.276;2023-08-31T01:37:14;12.15;;;6.43;;
74957;SDS011;63741;42.624;26.276;2023-08-31T01:39:49;15.27;;;7.22;;
74957;SDS011;63741;42.624;26.276;2023-08-31T01:42:22;13.85;;;6.57;;
74957;SDS011;63741;42.624;26.276;2023-08-31T01:44:52;14.18;;;6.93;;
74957;SDS011;63741;42.624;26.276;2023-08-31T01:47:22;15.73;;;7.05;;
74957;SDS011;63741;42.624;26.276;2023-08-31T01:49:50;17.17;;;7.00;;
74957;SDS011;63741;42.624;26.276;2023-08-31T01:52:17;13.27;;;6.70;;
74957;SDS011;63741;42.624;26.276;2023-08-31T01:54:44;15.32;;;7.05;;
74957;SDS011;63741;42.624;26.276;2023-08-31T01:57:11;11.40;;;6.88;;
74957;SDS011;63741;42.624;26.276;2023-08-31T01:59:58;10.25;;;6.78;;
74957;SDS011;63741;42.624;26.276;2023-08-31T02:02:26;11.10;;;7.30;;
74957;SDS011;63741;42.624;26.276;2023-08-31T02:04:52;13.35;;;6.97;;
74957;SDS011;63741;42.624;26.276;2023-08-31T02:07:20;12.70;;;7.03;;
74957;SDS011;63741;42.624;26.276;2023-08-31T02:09:46;13.65;;;7.32;;
74957;SDS011;63741;42.624;26.276;2023-08-31T02:12:13;12.23;;;6.55;;
74957;SDS011;63741;42.624;26.276;2023-08-31T02:14:40;15.80;;;7.55;;
74957;SDS011;63741;42.624;26.276;2023-08-31T02:17:07;15.82;;;7.88;;
74957;SDS011;63741;42.624;26.276;2023-08-31T02:19:34;17.77;;;7.70;;
74957;SDS011;63741;42.624;26.276;2023-08-31T02:22:01;19.25;;;6.78;;
74957;SDS011;63741;42.624;26.276;2023-08-31T02:24:28;18.20;;;7.75;;
74957;SDS011;63741;42.624;26.276;2023-08-31T02:26:55;14.82;;;7.43;;
74957;SDS011;63741;42.624;26.276;2023-08-31T02:29:25;14.38;;;7.80;;
74957;SDS011;63741;42.624;26.276;2023-08-31T02:31:52;15.57;;;7.53;;
74957;SDS011;63741;42.624;26.276;2023-08-31T02:34:19;16.90;;;8.05;;
74957;SDS011;63741;42.624;26.276;2023-08-31T02:36:47;11.10;;;7.82;;
74957;SDS011;63741;42.624;26.276;2023-08-31T02:39:14;14.45;;;7.82;;
74957;SDS011;63741;42.624;26.276;2023-08-31T02:41:42;13.68;;;7.68;;
74957;SDS011;63741;42.624;26.276;2023-08-31T02:44:09;14.43;;;7.43;;
74957;SDS011;63741;42.624;26.276;2023-08-31T02:46:38;23.30;;;7.63;;
74957;SDS011;63741;42.624;26.276;2023-08-31T02:49:05;12.55;;;7.22;;
74957;SDS011;63741;42.624;26.276;2023-08-31T02:51:33;10.55;;;7.10;;
74957;SDS011;63741;42.624;26.276;2023-08-31T02:54:00;13.88;;;7.75;;
74957;SDS011;63741;42.624;26.276;2023-08-31T02:56:27;16.15;;;7.75;;
74957;SDS011;63741;42.624;26.276;2023-08-31T02:58:54;20.95;;;7.32;;
74957;SDS011;63741;42.624;26.276;2023-08-31T03:01:22;17.65;;;8.02;;
74957;SDS011;63741;42.624;26.276;2023-08-31T03:03:51;16.65;;;7.75;;
74957;SDS011;63741;42.624;26.276;2023-08-31T03:06:20;18.77;;;8.10;;
74957;SDS011;63741;42.624;26.276;2023-08-31T03:08:47;15.80;;;7.22;;
74957;SDS011;63741;42.624;26.276;2023-08-31T03:11:14;21.35;;;7.88;;
74957;SDS011;63741;42.624;26.276;2023-08-31T03:13:41;17.92;;;7.88;;
74957;SDS011;63741;42.624;26.276;2023-08-31T03:16:08;18.15;;;7.75;;
74957;SDS011;63741;42.624;26.276;2023-08-31T03:18:35;18.65;;;7.95;;
74957;SDS011;63741;42.624;26.276;2023-08-31T03:21:02;17.92;;;8.70;;
74957;SDS011;63741;42.624;26.276;2023-08-31T03:23:29;26.95;;;8.05;;
74957;SDS011;63741;42.624;26.276;2023-08-31T03:25:56;28.83;;;8.32;;
74957;SDS011;63741;42.624;26.276;2023-08-31T03:28:25;45.45;;;8.73;;
74957;SDS011;63741;42.624;26.276;2023-08-31T03:30:56;33.80;;;8.55;;
74957;SDS011;63741;42.624;26.276;2023-08-31T03:33:23;20.35;;;8.63;;
74957;SDS011;63741;42.624;26.276;2023-08-31T03:35:50;33.83;;;9.30;;
74957;SDS011;63741;42.624;26.276;2023-08-31T03:38:17;48.85;;;9.88;;
74957;SDS011;63741;42.624;26.276;2023-08-31T03:40:54;41.42;;;8.95;;
74957;SDS011;63741;42.624;26.276;2023-08-31T03:43:21;32.40;;;10.23;;
74957;SDS011;63741;42.624;26.276;2023-08-31T03:45:53;29.95;;;11.90;;
74957;SDS011;63741;42.624;26.276;2023-08-31T03:48:25;32.20;;;12.05;;
74957;SDS011;63741;42.624;26.276;2023-08-31T03:50:52;52.88;;;13.20;;
74957;SDS011;63741;42.624;26.276;2023-08-31T03:53:21;24.85;;;9.32;;
74957;SDS011;63741;42.624;26.276;2023-08-31T03:55:52;20.33;;;9.05;;
74957;SDS011;63741;42.624;26.276;2023-08-31T03:58:19;20.15;;;7.90;;
74957;SDS011;63741;42.624;26.276;2023-08-31T04:00:49;21.58;;;8.73;;
74957;SDS011;63741;42.624;26.276;2023-08-31T04:03:18;23.27;;;8.57;;
74957;SDS011;63741;42.624;26.276;2023-08-31T04:05:46;31.35;;;8.82;;
74957;SDS011;63741;42.624;26.276;2023-08-31T04:08:13;14.70;;;7.97;;
74957;SDS011;63741;42.624;26.276;2023-08-31T04:10:40;33.28;;;8.73;;
74957;SDS011;63741;42.624;26.276;2023-08-31T04:13:07;17.77;;;7.93;;
74957;SDS011;63741;42.624;26.276;2023-08-31T04:15:34;16.98;;;8.05;;
74957;SDS011;63741;42.624;26.276;2023-08-31T04:18:01;20.90;;;8.60;;
74957;SDS011;63741;42.624;26.276;2023-08-31T04:20:28;27.13;;;9.00;;
74957;SDS011;63741;42.624;26.276;2023-08-31T04:22:55;22.38;;;8.52;;
74957;SDS011;63741;42.624;26.276;2023-08-31T04:25:22;36.38;;;9.07;;
74957;SDS011;63741;42.624;26.276;2023-08-31T04:27:49;19.50;;;8.88;;
74957;SDS011;63741;42.624;26.276;2023-08-31T04:30:16;41.53;;;9.38;;
74957;SDS011;63741;42.624;26.276;2023-08-31T04:32:44;43.55;;;9.98;;
74957;SDS011;63741;42.624;26.276;2023-08-31T04:35:13;23.60;;;9.63;;
74957;SDS011;63741;42.624;26.276;2023-08-31T04:37:40;27.92;;;10.85;;
74957;SDS011;63741;42.624;26.276;2023-08-31T04:40:07;27.00;;;10.20;;
74957;SDS011;63741;42.624;26.276;2023-08-31T04:42:35;23.65;;;9.30;;
74957;SDS011;63741;42.624;26.276;2023-08-31T04:45:03;54.95;;;11.45;;
74957;SDS011;63741;42.624;26.276;2023-08-31T04:47:31;23.58;;;9.20;;
74957;SDS011;63741;42.624;26.276;2023-08-31T04:49:59;14.90;;;7.68;;
74957;SDS011;63741;42.624;26.276;2023-08-31T04:52:26;23.73;;;7.97;;
74957;SDS011;63741;42.624;26.276;2023-08-31T04:54:53;24.65;;;7.82;;
74957;SDS011;63741;42.624;26.276;2023-08-31T04:57:20;30.27;;;8.30;;
74957;SDS011;63741;42.624;26.276;2023-08-31T04:59:47;96.85;;;11.18;;
74957;SDS011;63741;42.624;26.276;2023-08-31T05:02:14;37.08;;;7.95;;
74957;SDS011;63741;42.624;26.276;2023-08-31T05:04:40;19.23;;;7.60;;
74957;SDS011;63741;42.624;26.276;2023-08-31T05:07:07;12.75;;;7.32;;
74957;SDS011;63741;42.624;26.276;2023-08-31T05:09:34;33.45;;;8.05;;
74957;SDS011;63741;42.624;26.276;2023-08-31T05:12:02;38.92;;;8.40;;
74957;SDS011;63741;42.624;26.276;2023-08-31T05:14:29;10.73;;;7.22;;
74957;SDS011;63741;42.624;26.276;2023-08-31T05:16:56;11.57;;;7.00;;
74957;SDS011;63741;42.624;26.276;2023-08-31T05:19:23;19.42;;;8.27;;
74957;SDS011;63741;42.624;26.276;2023-08-31T05:21:50;19.13;;;8.05;;
74957;SDS011;63741;42.624;26.276;2023-08-31T05:24:17;15.02;;;8.18;;
74957;SDS011;63741;42.624;26.276;2023-08-31T05:26:44;23.88;;;8.07;;
74957;SDS011;63741;42.624;26.276;2023-08-31T05:29:11;27.58;;;8.32;;
74957;SDS011;63741;42.624;26.276;2023-08-31T05:31:38;25.15;;;7.75;;
74957;SDS011;63741;42.624;26.276;2023-08-31T05:34:05;57.97;;;9.35;;
74957;SDS011;63741;42.624;26.276;2023-08-31T05:36:32;11.43;;;7.88;;
74957;SDS011;63741;42.624;26.276;2023-08-31T05:38:59;31.33;;;8.00;;
74957;SDS011;63741;42.624;26.276;2023-08-31T05:41:26;29.10;;;8.60;;
74957;SDS011;63741;42.624;26.276;2023-08-31T05:43:53;15.68;;;7.85;;
74957;SDS011;63741;42.624;26.276;2023-08-31T05:46:20;11.45;;;7.90;;
74957;SDS011;63741;42.624;26.276;2023-08-31T05:48:47;32.33;;;8.00;;
74957;SDS011;63741;42.624;26.276;2023-08-31T05:51:14;10.90;;;6.60;;
74957;SDS011;63741;42.624;26.276;2023-08-31T05:53:41;14.70;;;6.20;;
74957;SDS011;63741;42.624;26.276;2023-08-31T05:56:08;23.75;;;6.35;;
74957;SDS011;63741;42.624;26.276;2023-08-31T05:58:37;30.73;;;6.28;;
74957;SDS011;63741;42.624;26.276;2023-08-31T06:01:05;17.58;;;5.53;;
74957;SDS011;63741;42.624;26.276;2023-08-31T06:03:32;20.13;;;5.50;;
74957;SDS011;63741;42.624;26.276;2023-08-31T06:05:59;8.18;;;4.93;;
74957;SDS011;63741;42.624;26.276;2023-08-31T06:08:27;29.77;;;6.18;;
74957;SDS011;63741;42.624;26.276;2023-08-31T06:10:54;17.92;;;5.35;;
74957;SDS011;63741;42.624;26.276;2023-08-31T06:13:21;12.63;;;5.15;;
74957;SDS011;63741;42.624;26.276;2023-08-31T06:15:48;13.90;;;5.07;;
74957;SDS011;63741;42.624;26.276;2023-08-31T06:18:16;32.75;;;5.93;;
74957;SDS011;63741;42.624;26.276;2023-08-31T06:20:43;10.80;;;4.47;;
74957;SDS011;63741;42.624;26.276;2023-08-31T06:23:10;25.75;;;5.32;;
74957;SDS011;63741;42.624;26.276;2023-08-31T06:25:38;10.13;;;5.13;;
74957;SDS011;63741;42.624;26.276;2023-08-31T06:28:05;23.60;;;5.40;;
74957;SDS011;63741;42.624;26.276;2023-08-31T06:30:37;176.52;;;13.23;;
74957;SDS011;63741;42.624;26.276;2023-08-31T06:33:04;6.07;;;4.35;;
74957;SDS011;63741;42.624;26.276;2023-08-31T06:35:32;88.57;;;8.02;;
74957;SDS011;63741;42.624;26.276;2023-08-31T06:37:59;10.73;;;4.90;;
74957;SDS011;63741;42.624;26.276;2023-08-31T06:40:26;17.70;;;5.47;;
74957;SDS011;63741;42.624;26.276;2023-08-31T06:42:53;8.77;;;5.00;;
74957;SDS011;63741;42.624;26.276;2023-08-31T06:45:19;9.52;;;4.95;;
74957;SDS011;63741;42.624;26.276;2023-08-31T06:47:48;40.95;;;6.10;;
74957;SDS011;63741;42.624;26.276;2023-08-31T06:50:15;29.23;;;4.82;;
74957;SDS011;63741;42.624;26.276;2023-08-31T06:52:42;10.77;;;4.40;;
74957;SDS011;63741;42.624;26.276;2023-08-31T06:55:10;17.70;;;4.97;;
74957;SDS011;63741;42.624;26.276;2023-08-31T06:57:37;7.15;;;4.28;;
74957;SDS011;63741;42.624;26.276;2023-08-31T07:00:06;22.27;;;4.95;;
74957;SDS011;63741;42.624;26.276;2023-08-31T07:02:36;12.20;;;4.47;;
74957;SDS011;63741;42.624;26.276;2023-08-31T07:05:06;22.95;;;4.50;;
74957;SDS011;63741;42.624;26.276;2023-08-31T07:07:33;5.78;;;3.92;;
74957;SDS011;63741;42.624;26.276;2023-08-31T07:10:00;16.50;;;4.70;;
74957;SDS011;63741;42.624;26.276;2023-08-31T07:12:27;10.73;;;4.47;;
74957;SDS011;63741;42.624;26.276;2023-08-31T07:14:54;29.77;;;4.85;;
74957;SDS011;63741;42.624;26.276;2023-08-31T07:17:21;14.75;;;4.43;;
74957;SDS011;63741;42.624;26.276;2023-08-31T07:19:48;14.48;;;4.22;;
74957;SDS011;63741;42.624;26.276;2023-08-31T07:22:15;9.55;;;4.05;;
74957;SDS011;63741;42.624;26.276;2023-08-31T07:24:42;7.28;;;3.70;;
74957;SDS011;63741;42.624;26.276;2023-08-31T07:27:09;15.25;;;4.15;;
74957;SDS011;63741;42.624;26.276;2023-08-31T07:29:36;14.90;;;4.28;;
74957;SDS011;63741;42.624;26.276;2023-08-31T07:32:03;11.10;;;3.55;;
74957;SDS011;63741;42.624;26.276;2023-08-31T07:34:30;19.40;;;3.97;;
74957;SDS011;63741;42.624;26.276;2023-08-31T07:36:59;14.35;;;4.00;;
74957;SDS011;63741;42.624;26.276;2023-08-31T07:39:26;28.58;;;4.07;;
74957;SDS011;63741;42.624;26.276;2023-08-31T07:41:54;8.27;;;3.72;;
74957;SDS011;63741;42.624;26.276;2023-08-31T07:44:21;8.63;;;3.58;;
74957;SDS011;63741;42.624;26.276;2023-08-31T07:46:48;9.07;;;3.58;;
74957;SDS011;63741;42.624;26.276;2023-08-31T07:49:15;9.68;;;3.40;;
74957;SDS011;63741;42.624;26.276;2023-08-31T07:51:42;5.65;;;3.35;;
74957;SDS011;63741;42.624;26.276;2023-08-31T07:54:09;19.35;;;3.92;;
74957;SDS011;63741;42.624;26.276;2023-08-31T07:56:36;10.75;;;3.70;;
74957;SDS011;63741;42.624;26.276;2023-08-31T07:59:03;24.15;;;4.18;;
74957;SDS011;63741;42.624;26.276;2023-08-31T08:01:30;6.15;;;3.03;;
74957;SDS011;63741;42.624;26.276;2023-08-31T08:03:57;9.32;;;3.25;;
74957;SDS011;63741;42.624;26.276;2023-08-31T08:06:24;10.25;;;3.53;;
74957;SDS011;63741;42.624;26.276;2023-08-31T08:08:52;26.20;;;4.05;;
74957;SDS011;63741;42.624;26.276;2023-08-31T08:11:19;4.40;;;3.03;;
74957;SDS011;63741;42.624;26.276;2023-08-31T08:13:45;16.13;;;3.63;;
74957;SDS011;63741;42.624;26.276;2023-08-31T08:16:12;11.88;;;3.75;;
74957;SDS011;63741;42.624;26.276;2023-08-31T08:18:41;9.40;;;3.42;;
74957;SDS011;63741;42.624;26.276;2023-08-31T08:21:08;14.85;;;3.47;;
74957;SDS011;63741;42.624;26.276;2023-08-31T08:23:35;7.75;;;3.30;;
74957;SDS011;63741;42.624;26.276;2023-08-31T08:26:02;9.90;;;3.20;;
74957;SDS011;63741;42.624;26.276;2023-08-31T08:28:29;7.05;;;2.92;;
74957;SDS011;63741;42.624;26.276;2023-08-31T08:30:55;20.88;;;3.40;;
74957;SDS011;63741;42.624;26.276;2023-08-31T08:33:23;10.82;;;3.40;;
74957;SDS011;63741;42.624;26.276;2023-08-31T08:35:50;30.08;;;4.10;;
74957;SDS011;63741;42.624;26.276;2023-08-31T08:38:17;9.70;;;3.10;;
74957;SDS011;63741;42.624;26.276;2023-08-31T08:40:44;36.42;;;4.40;;
74957;SDS011;63741;42.624;26.276;2023-08-31T08:43:11;10.85;;;3.28;;
74957;SDS011;63741;42.624;26.276;2023-08-31T08:45:40;9.63;;;3.30;;
74957;SDS011;63741;42.624;26.276;2023-08-31T08:48:13;7.13;;;3.03;;
74957;SDS011;63741;42.624;26.276;2023-08-31T08:50:41;13.50;;;3.80;;
74957;SDS011;63741;42.624;26.276;2023-08-31T08:53:09;10.18;;;3.05;;
74957;SDS011;63741;42.624;26.276;2023-08-31T08:55:37;21.23;;;3.47;;
74957;SDS011;63741;42.624;26.276;2023-08-31T08:58:04;19.85;;;3.60;;
74957;SDS011;63741;42.624;26.276;2023-08-31T09:00:32;8.30;;;3.58;;
74957;SDS011;63741;42.624;26.276;2023-08-31T09:03:00;16.42;;;3.80;;
74957;SDS011;63741;42.624;26.276;2023-08-31T09:05:32;8.73;;;3.10;;
74957;SDS011;63741;42.624;26.276;2023-08-31T09:08:06;9.10;;;3.50;;
74957;SDS011;63741;42.624;26.276;2023-08-31T09:10:40;10.40;;;3.80;;
74957;SDS011;63741;42.624;26.276;2023-08-31T09:13:08;5.07;;;3.35;;
74957;SDS011;63741;42.624;26.276;2023-08-31T09:15:40;7.60;;;3.42;;
74957;SDS011;63741;42.624;26.276;2023-08-31T09:20:43;19.52;;;3.92;;
74957;SDS011;63741;42.624;26.276;2023-08-31T09:23:13;7.97;;;3.50;;
74957;SDS011;63741;42.624;26.276;2023-08-31T09:25:42;18.90;;;3.60;;
74957;SDS011;63741;42.624;26.276;2023-08-31T09:28:13;9.73;;;3.55;;
74957;SDS011;63741;42.624;26.276;2023-08-31T09:30:42;8.30;;;3.80;;
74957;SDS011;63741;42.624;26.276;2023-08-31T09:33:10;6.65;;;3.25;;
74957;SDS011;63741;42.624;26.276;2023-08-31T09:35:42;12.77;;;3.50;;
74957;SDS011;63741;42.624;26.276;2023-08-31T09:38:22;17.45;;;3.63;;
74957;SDS011;63741;42.624;26.276;2023-08-31T09:40:49;17.23;;;3.75;;
74957;SDS011;63741;42.624;26.276;2023-08-31T09:43:25;8.35;;;3.40;;
74957;SDS011;63741;42.624;26.276;2023-08-31T09:45:51;8.38;;;3.50;;
74957;SDS011;63741;42.624;26.276;2023-08-31T09:48:20;8.32;;;3.45;;
74957;SDS011;63741;42.624;26.276;2023-08-31T09:50:49;13.30;;;3.50;;
74957;SDS011;63741;42.624;26.276;2023-08-31T09:53:19;14.77;;;3.55;;
74957;SDS011;63741;42.624;26.276;2023-08-31T09:55:47;6.88;;;3.10;;
74957;SDS011;63741;42.624;26.276;2023-08-31T09:58:16;6.13;;;2.90;;
74957;SDS011;63741;42.624;26.276;2023-08-31T10:00:45;5.57;;;2.85;;
74957;SDS011;63741;42.624;26.276;2023-08-31T10:03:14;8.48;;;2.90;;
74957;SDS011;63741;42.624;26.276;2023-08-31T10:05:46;21.10;;;3.53;;
74957;SDS011;63741;42.624;26.276;2023-08-31T10:08:14;8.82;;;3.17;;
74957;SDS011;63741;42.624;26.276;2023-08-31T10:10:42;54.95;;;4.60;;
74957;SDS011;63741;42.624;26.276;2023-08-31T10:13:10;36.25;;;4.10;;
74957;SDS011;63741;42.624;26.276;2023-08-31T10:15:38;17.75;;;3.70;;
74957;SDS011;63741;42.624;26.276;2023-08-31T10:18:07;6.63;;;3.33;;
74957;SDS011;63741;42.624;26.276;2023-08-31T10:20:34;24.33;;;3.72;;
74957;SDS011;63741;42.624;26.276;2023-08-31T10:23:05;13.80;;;3.35;;
74957;SDS011;63741;42.624;26.276;2023-08-31T10:28:19;9.15;;;3.08;;
74957;SDS011;63741;42.624;26.276;2023-08-31T10:31:03;130.70;;;8.18;;
74957;SDS011;63741;42.624;26.276;2023-08-31T10:33:44;11.32;;;3.13;;
74957;SDS011;63741;42.624;26.276;2023-08-31T10:36:16;13.23;;;3.13;;
74957;SDS011;63741;42.624;26.276;2023-08-31T10:38:45;36.42;;;4.78;;
74957;SDS011;63741;42.624;26.276;2023-08-31T10:41:24;7.15;;;3.05;;
74957;SDS011;63741;42.624;26.276;2023-08-31T10:49:01;9.50;;;3.28;;
74957;SDS011;63741;42.624;26.276;2023-08-31T10:51:41;10.60;;;3.28;;
74957;SDS011;63741;42.624;26.276;2023-08-31T10:54:22;31.48;;;3.80;;
74957;SDS011;63741;42.624;26.276;2023-08-31T10:59:45;8.68;;;3.30;;
74957;SDS011;63741;42.624;26.276;2023-08-31T11:02:46;9.75;;;3.22;;
74957;SDS011;63741;42.624;26.276;2023-08-31T11:05:13;8.25;;;2.97;;
74957;SDS011;63741;42.624;26.276;2023-08-31T11:07:42;12.18;;;3.10;;
74957;SDS011;63741;42.624;26.276;2023-08-31T11:12:45;10.35;;;3.50;;
74957;SDS011;63741;42.624;26.276;2023-08-31T11:15:17;39.15;;;3.45;;
74957;SDS011;63741;42.624;26.276;2023-08-31T11:17:45;11.00;;;3.45;;
74957;SDS011;63741;42.624;26.276;2023-08-31T11:20:17;20.17;;;4.05;;
74957;SDS011;63741;42.624;26.276;2023-08-31T11:22:46;5.45;;;3.10;;
74957;SDS011;63741;42.624;26.276;2023-08-31T11:25:16;25.27;;;3.60;;
74957;SDS011;63741;42.624;26.276;2023-08-31T11:28:00;36.90;;;4.32;;
74957;SDS011;63741;42.624;26.276;2023-08-31T11:30:32;18.77;;;4.00;;
74957;SDS011;63741;42.624;26.276;2023-08-31T11:33:06;11.65;;;3.65;;
74957;SDS011;63741;42.624;26.276;2023-08-31T11:35:39;26.55;;;3.92;;
74957;SDS011;63741;42.624;26.276;2023-08-31T11:38:08;17.65;;;3.90;;
74957;SDS011;63741;42.624;26.276;2023-08-31T11:40:35;43.83;;;5.43;;
74957;SDS011;63741;42.624;26.276;2023-08-31T11:43:06;15.55;;;3.25;;
74957;SDS011;63741;42.624;26.276;2023-08-31T11:45:34;92.32;;;7.40;;
74957;SDS011;63741;42.624;26.276;2023-08-31T11:48:03;12.60;;;3.55;;
74957;SDS011;63741;42.624;26.276;2023-08-31T11:50:31;22.95;;;4.05;;
74957;SDS011;63741;42.624;26.276;2023-08-31T11:52:58;37.08;;;4.32;;
74957;SDS011;63741;42.624;26.276;2023-08-31T11:55:25;32.10;;;4.05;;
74957;SDS011;63741;42.624;26.276;2023-08-31T11:57:52;15.10;;;3.33;;
74957;SDS011;63741;42.624;26.276;2023-08-31T12:00:21;12.77;;;4.13;;
74957;SDS011;63741;42.624;26.276;2023-08-31T12:02:55;12.38;;;4.15;;
74957;SDS011;63741;42.624;26.276;2023-08-31T12:05:24;6.20;;;2.90;;
74957;SDS011;63741;42.624;26.276;2023-08-31T12:07:53;17.13;;;3.50;;
74957;SDS011;63741;42.624;26.276;2023-08-31T12:10:23;13.52;;;3.85;;
74957;SDS011;63741;42.624;26.276;2023-08-31T12:12:51;15.52;;;3.47;;
74957;SDS011;63741;42.624;26.276;2023-08-31T12:15:19;15.52;;;3.50;;
74957;SDS011;63741;42.624;26.276;2023-08-31T12:17:49;7.38;;;3.03;;
74957;SDS011;63741;42.624;26.276;2023-08-31T12:20:25;38.17;;;3.97;;
74957;SDS011;63741;42.624;26.276;2023-08-31T12:22:55;28.13;;;3.95;;
74957;SDS011;63741;42.624;26.276;2023-08-31T12:25:22;51.35;;;5.53;;
74957;SDS011;63741;42.624;26.276;2023-08-31T12:27:50;15.80;;;3.30;;
74957;SDS011;63741;42.624;26.276;2023-08-31T12:30:17;21.63;;;3.75;;
74957;SDS011;63741;42.624;26.276;2023-08-31T12:32:44;17.85;;;3.60;;
74957;SDS011;63741;42.624;26.276;2023-08-31T12:35:11;12.30;;;3.70;;
74957;SDS011;63741;42.624;26.276;2023-08-31T12:37:38;20.50;;;4.03;;
74957;SDS011;63741;42.624;26.276;2023-08-31T12:40:05;17.85;;;3.20;;
74957;SDS011;63741;42.624;26.276;2023-08-31T12:42:36;76.32;;;5.57;;
74957;SDS011;63741;42.624;26.276;2023-08-31T12:45:03;46.67;;;4.80;;
74957;SDS011;63741;42.624;26.276;2023-08-31T12:47:32;94.63;;;7.38;;
74957;SDS011;63741;42.624;26.276;2023-08-31T12:49:59;22.58;;;3.63;;
74957;SDS011;63741;42.624;26.276;2023-08-31T12:52:26;12.00;;;3.53;;
74957;SDS011;63741;42.624;26.276;2023-08-31T12:54:53;24.75;;;3.55;;
74957;SDS011;63741;42.624;26.276;2023-08-31T12:57:20;50.92;;;5.68;;
74957;SDS011;63741;42.624;26.276;2023-08-31T12:59:47;17.95;;;3.72;;
74957;SDS011;63741;42.624;26.276;2023-08-31T13:02:14;72.32;;;6.53;;
74957;SDS011;63741;42.624;26.276;2023-08-31T13:04:41;42.10;;;4.68;;
74957;SDS011;63741;42.624;26.276;2023-08-31T13:07:08;13.93;;;3.72;;
74957;SDS011;63741;42.624;26.276;2023-08-31T13:09:35;32.28;;;4.53;;
74957;SDS011;63741;42.624;26.276;2023-08-31T13:12:02;27.55;;;4.32;;
74957;SDS011;63741;42.624;26.276;2023-08-31T13:14:30;24.15;;;3.78;;
74957;SDS011;63741;42.624;26.276;2023-08-31T13:16:57;14.30;;;3.83;;
74957;SDS011;63741;42.624;26.276;2023-08-31T13:19:24;20.33;;;3.65;;
74957;SDS011;63741;42.624;26.276;2023-08-31T13:21:53;46.65;;;5.45;;
74957;SDS011;63741;42.624;26.276;2023-08-31T13:24:20;11.85;;;3.28;;
74957;SDS011;63741;42.624;26.276;2023-08-31T13:26:48;20.63;;;4.05;;
74957;SDS011;63741;42.624;26.276;2023-08-31T13:29:15;38.80;;;4.32;;
74957;SDS011;63741;42.624;26.276;2023-08-31T13:31:43;32.72;;;4.50;;
74957;SDS011;63741;42.624;26.276;2023-08-31T13:34:10;19.23;;;3.63;;
74957;SDS011;63741;42.624;26.276;2023-08-31T13:36:37;19.08;;;3.70;;
74957;SDS011;63741;42.624;26.276;2023-08-31T13:39:04;27.00;;;3.80;;
74957;SDS011;63741;42.624;26.276;2023-08-31T13:41:31;8.52;;;3.20;;
74957;SDS011;63741;42.624;26.276;2023-08-31T13:43:58;48.72;;;4.80;;
74957;SDS011;63741;42.624;26.276;2023-08-31T13:46:25;9.57;;;3.40;;
74957;SDS011;63741;42.624;26.276;2023-08-31T13:48:52;25.23;;;4.93;;
74957;SDS011;63741;42.624;26.276;2023-08-31T13:51:19;29.38;;;4.95;;
74957;SDS011;63741;42.624;26.276;2023-08-31T13:53:46;35.05;;;5.03;;
74957;SDS011;63741;42.624;26.276;2023-08-31T13:56:13;17.15;;;4.05;;
74957;SDS011;63741;42.624;26.276;2023-08-31T13:58:40;11.05;;;3.38;;
74957;SDS011;63741;42.624;26.276;2023-08-31T14:01:07;31.20;;;4.88;;
74957;SDS011;63741;42.624;26.276;2023-08-31T14:03:35;27.48;;;3.78;;
74957;SDS011;63741;42.624;26.276;2023-08-31T14:06:02;28.90;;;3.65;;
74957;SDS011;63741;42.624;26.276;2023-08-31T14:08:32;59.85;;;5.60;;
74957;SDS011;63741;42.624;26.276;2023-08-31T14:10:59;16.77;;;3.72;;
74957;SDS011;63741;42.624;26.276;2023-08-31T14:13:28;17.63;;;3.65;;
74957;SDS011;63741;42.624;26.276;2023-08-31T14:15:55;24.95;;;4.03;;
74957;SDS011;63741;42.624;26.276;2023-08-31T14:18:26;125.82;;;7.65;;
74957;SDS011;63741;42.624;26.276;2023-08-31T14:20:55;10.73;;;3.38;;
74957;SDS011;63741;42.624;26.276;2023-08-31T14:23:23;17.70;;;3.80;;
74957;SDS011;63741;42.624;26.276;2023-08-31T14:25:51;26.85;;;4.50;;
74957;SDS011;63741;42.624;26.276;2023-08-31T14:28:18;25.92;;;4.25;;
74957;SDS011;63741;42.624;26.276;2023-08-31T14:30:45;15.18;;;3.90;;
74957;SDS011;63741;42.624;26.276;2023-08-31T14:33:12;12.50;;;3.90;;
74957;SDS011;63741;42.624;26.276;2023-08-31T14:35:39;17.98;;;3.53;;
74957;SDS011;63741;42.624;26.276;2023-08-31T14:38:06;16.63;;;3.45;;
74957;SDS011;63741;42.624;26.276;2023-08-31T14:40:34;14.93;;;3.50;;
74957;SDS011;63741;42.624;26.276;2023-08-31T14:43:03;11.80;;;3.28;;
74957;SDS011;63741;42.624;26.276;2023-08-31T14:45:30;26.13;;;4.47;;
74957;SDS011;63741;42.624;26.276;2023-08-31T14:47:57;12.00;;;3.25;;
74957;SDS011;63741;42.624;26.276;2023-08-31T14:50:24;14.85;;;3.45;;
74957;SDS011;63741;42.624;26.276;2023-08-31T14:52:51;78.38;;;6.40;;
74957;SDS011;63741;42.624;26.276;2023-08-31T14:55:18;13.35;;;3.58;;
74957;SDS011;63741;42.624;26.276;2023-08-31T14:57:45;13.50;;;3.47;;